Time;durP1;ratioP1;P1;durP2;ratioP2;P2;SDS_P1;SDS_P2;PMS_P1;PMS_P2;Temp;Humidity;BMP_temperature;BMP_pressure;BME280_temperature;BME280_humidity;BME280_pressure;Samples;Min_cycle;Max_cycle;Signal;HPM_P1;HPM_P2
2023/04/14 00:00:36;;;;;;;9.57;2.00;;;;;;;2.65;100.00;97969.03;5043112;28;20217;-60
2023/04/14 00:03:03;;;;;;;8.77;2.20;;;;;;;2.61;100.00;97968.47;5039520;28;20830;-60
2023/04/14 00:05:30;;;;;;;8.50;2.37;;;;;;;2.60;100.00;97969.41;5027437;28;20236;-60
2023/04/14 00:07:57;;;;;;;7.50;2.03;;;;;;;2.55;100.00;97968.09;5034962;28;20602;-60
2023/04/14 00:10:25;;;;;;;12.60;2.63;;;;;;;2.66;100.00;97966.31;5032531;28;20251;-60
2023/04/14 00:12:54;;;;;;;18.50;2.57;;;;;;;2.68;100.00;97968.78;5041676;28;20622;-60
2023/04/14 00:15:21;;;;;;;9.70;2.67;;;;;;;2.74;100.00;97972.66;5024962;28;20226;-61
2023/04/14 00:17:48;;;;;;;9.13;2.37;;;;;;;2.64;100.00;97969.97;5031480;28;20223;-61
2023/04/14 00:20:14;;;;;;;7.63;2.40;;;;;;;2.69;100.00;97970.44;5028886;28;20227;-61
2023/04/14 00:22:41;;;;;;;12.00;3.40;;;;;;;2.64;100.00;97957.91;5032931;28;20261;-62
2023/04/14 00:25:08;;;;;;;7.23;2.07;;;;;;;2.62;100.00;97951.22;5023801;28;20220;-60
2023/04/14 00:27:36;;;;;;;10.63;2.23;;;;;;;2.64;100.00;97947.63;5023802;28;20289;-61
2023/04/14 00:30:04;;;;;;;9.97;2.57;;;;;;;2.70;100.00;97950.63;5024067;28;20225;-60
2023/04/14 00:32:34;;;;;;;12.00;2.63;;;;;;;2.57;100.00;97951.59;5033292;28;20223;-61
2023/04/14 00:35:02;;;;;;;10.17;2.43;;;;;;;2.49;100.00;97944.44;5022398;28;20231;-61
2023/04/14 00:37:28;;;;;;;8.07;2.43;;;;;;;2.44;100.00;97943.16;5028196;28;20769;-60
2023/04/14 00:39:55;;;;;;;7.33;2.07;;;;;;;2.57;100.00;97943.84;5020338;28;20215;-61
2023/04/14 00:42:22;;;;;;;9.20;2.63;;;;;;;2.68;100.00;97948.19;5009125;28;20243;-61
2023/04/14 00:44:50;;;;;;;6.90;2.40;;;;;;;2.68;100.00;97940.44;5031452;28;20229;-60
2023/04/14 00:47:17;;;;;;;10.70;2.57;;;;;;;2.73;100.00;97946.06;5014574;28;20607;-60
2023/04/14 00:49:45;;;;;;;8.10;2.17;;;;;;;2.84;100.00;97947.00;5028579;28;20242;-61
2023/04/14 00:52:12;;;;;;;9.80;2.20;;;;;;;2.84;100.00;97952.16;5034950;28;21231;-61
2023/04/14 00:54:39;;;;;;;6.53;2.13;;;;;;;2.75;100.00;97956.25;5014926;28;20225;-61
2023/04/14 00:57:06;;;;;;;8.47;2.20;;;;;;;2.71;100.00;97952.25;5005620;28;20220;-60
2023/04/14 00:59:33;;;;;;;10.10;2.23;;;;;;;2.63;100.00;97963.16;5008444;28;20252;-60
2023/04/14 01:02:01;;;;;;;8.70;2.27;;;;;;;2.66;100.00;97960.38;5015876;28;20234;-61
2023/04/14 01:04:29;;;;;;;11.43;2.43;;;;;;;2.55;100.00;97961.19;5014500;28;20241;-62
2023/04/14 01:06:56;;;;;;;8.97;2.17;;;;;;;2.47;100.00;97950.66;5005788;28;20306;-60
2023/04/14 01:09:23;;;;;;;7.20;2.00;;;;;;;2.47;100.00;97960.94;5026795;28;20235;-62
2023/04/14 01:11:56;;;;;;;11.90;2.67;;;;;;;2.51;100.00;97958.00;5043276;28;20669;-61
2023/04/14 01:14:35;;;;;;;12.83;2.23;;;;;;;2.44;100.00;97964.56;5015838;28;20274;-61
2023/04/14 01:17:11;;;;;;;7.37;2.03;;;;;;;2.33;100.00;97967.97;5042202;28;20327;-61
2023/04/14 01:19:57;;;;;;;6.30;1.80;;;;;;;2.21;100.00;97964.53;5001037;28;20275;-61
2023/04/14 01:22:29;;;;;;;8.57;2.40;;;;;;;2.20;100.00;97970.59;5008986;28;20775;-60
2023/04/14 01:25:22;;;;;;;5.97;1.80;;;;;;;2.17;100.00;97965.69;5018873;28;20305;-60
2023/04/14 01:27:59;;;;;;;7.33;1.87;;;;;;;2.11;100.00;97975.63;5021388;28;20220;-61
2023/04/14 01:30:41;;;;;;;11.43;2.30;;;;;;;2.08;100.00;97975.84;5007298;28;20679;-61
2023/04/14 01:33:15;;;;;;;10.07;1.70;;;;;;;2.01;100.00;97967.78;5032567;28;20250;-60
2023/04/14 01:35:49;;;;;;;11.77;2.77;;;;;;;2.00;100.00;97979.00;5021093;28;20261;-61
2023/04/14 01:38:23;;;;;;;7.33;1.37;;;;;;;1.94;100.00;97974.31;5005318;28;20228;-60
2023/04/14 01:40:56;;;;;;;7.00;1.90;;;;;;;1.94;100.00;97979.44;5032678;28;20214;-61
2023/04/14 01:43:26;;;;;;;9.30;1.73;;;;;;;1.92;100.00;97984.69;5042904;28;20317;-60
2023/04/14 01:45:57;;;;;;;5.97;1.80;;;;;;;1.78;100.00;97980.56;5027491;28;20211;-60
2023/04/14 01:48:26;;;;;;;8.40;1.60;;;;;;;1.70;100.00;97981.09;5010529;28;20240;-60
2023/04/14 01:50:55;;;;;;;7.50;1.80;;;;;;;1.66;100.00;97981.44;5045163;28;20224;-60
2023/04/14 01:53:24;;;;;;;7.37;1.70;;;;;;;1.60;100.00;97977.53;5023593;28;20674;-60
2023/04/14 01:55:52;;;;;;;7.27;1.70;;;;;;;1.58;100.00;97993.09;5027564;28;20221;-60
2023/04/14 01:58:21;;;;;;;7.80;2.00;;;;;;;1.64;100.00;97994.41;5014710;28;20226;-60
2023/04/14 02:00:50;;;;;;;11.20;2.00;;;;;;;1.58;100.00;97990.53;5018578;28;20731;-59
2023/04/14 02:03:19;;;;;;;8.93;1.70;;;;;;;1.64;100.00;97996.16;5012556;28;20227;-61
2023/04/14 02:05:51;;;;;;;5.93;1.30;;;;;;;1.64;100.00;97999.53;5040304;28;20215;-60
2023/04/14 02:08:19;;;;;;;7.07;1.53;;;;;;;1.70;100.00;97998.31;5005917;28;20761;-60
2023/04/14 02:10:49;;;;;;;9.02;2.58;;;;;;;1.76;100.00;98008.16;5012696;28;20803;-60
2023/04/14 02:13:19;;;;;;;5.73;1.83;;;;;;;1.66;100.00;98009.75;5031513;28;20222;-60
2023/04/14 02:15:47;;;;;;;7.40;1.70;;;;;;;1.57;100.00;98022.31;5010749;28;20220;-61
2023/04/14 02:18:14;;;;;;;9.37;1.90;;;;;;;1.54;100.00;98017.41;5018816;28;20232;-61
2023/04/14 02:20:43;;;;;;;6.67;1.60;;;;;;;1.51;100.00;98017.63;5032073;28;20224;-61
2023/04/14 02:23:12;;;;;;;7.93;1.70;;;;;;;1.47;100.00;98014.44;5031883;28;20314;-60
2023/04/14 02:25:45;;;;;;;6.63;1.70;;;;;;;1.39;100.00;98015.91;5012812;28;20687;-60
2023/04/14 02:28:18;;;;;;;6.93;1.90;;;;;;;1.48;100.00;98020.41;5021106;28;20742;-60
2023/04/14 02:30:48;;;;;;;6.43;2.10;;;;;;;1.47;100.00;98022.16;5044223;28;20273;-60
2023/04/14 02:33:18;;;;;;;8.17;1.90;;;;;;;1.40;100.00;98022.69;5040592;28;20226;-60
2023/04/14 02:35:48;;;;;;;5.67;1.47;;;;;;;1.47;100.00;98022.16;5016269;28;20629;-60
2023/04/14 02:38:22;;;;;;;11.50;1.90;;;;;;;1.39;100.00;98021.88;5031380;28;20215;-60
2023/04/14 02:40:49;;;;;;;10.73;1.60;;;;;;;1.47;100.00;98016.19;5011413;28;20227;-60
2023/04/14 02:43:19;;;;;;;8.33;1.90;;;;;;;1.43;100.00;98023.31;5019894;28;20215;-60
2023/04/14 02:45:49;;;;;;;8.73;1.93;;;;;;;1.51;100.00;98024.53;5007174;28;20273;-60
2023/04/14 02:48:19;;;;;;;7.37;1.73;;;;;;;1.54;100.00;98026.88;5020784;28;20251;-60
2023/04/14 02:50:49;;;;;;;7.03;1.97;;;;;;;1.43;100.00;98028.47;5010724;28;20226;-60
2023/04/14 02:53:23;;;;;;;7.70;1.47;;;;;;;1.38;100.00;98021.97;5011238;28;20231;-60
2023/04/14 02:55:57;;;;;;;12.53;2.97;;;;;;;1.39;100.00;98021.88;5021935;28;20216;-60
2023/04/14 02:58:28;;;;;;;9.23;1.83;;;;;;;1.27;100.00;98023.53;5004361;28;20767;-60
2023/04/14 03:04:00;;;;;;;11.53;2.00;;;;;;;1.22;100.00;98020.47;5807724;22;20227;-57
2023/04/14 03:06:30;;;;;;;9.13;1.70;;;;;;;1.17;100.00;98023.38;5008184;28;20239;-56
2023/04/14 03:08:59;;;;;;;6.00;1.60;;;;;;;1.17;100.00;98019.97;5022935;28;20207;-56
2023/04/14 03:11:28;;;;;;;5.53;1.60;;;;;;;1.08;100.00;98015.47;5014238;28;20227;-55
2023/04/14 03:13:57;;;;;;;7.23;1.60;;;;;;;1.10;100.00;98021.31;5020265;28;20630;-56
2023/04/14 03:16:26;;;;;;;6.57;1.80;;;;;;;1.10;100.00;98021.31;5011534;28;20260;-55
2023/04/14 03:18:54;;;;;;;10.17;1.80;;;;;;;1.03;100.00;98021.75;5004123;28;20282;-56
2023/04/14 03:21:22;;;;;;;8.40;1.60;;;;;;;1.07;100.00;98022.38;5028583;28;20246;-57
2023/04/14 03:23:54;;;;;;;8.73;1.77;;;;;;;1.06;100.00;98020.72;5009876;28;20697;-57
2023/04/14 03:26:25;;;;;;;9.57;1.77;;;;;;;1.07;100.00;98021.53;5006160;28;20232;-53
2023/04/14 03:28:54;;;;;;;6.03;1.40;;;;;;;1.13;100.00;98023.69;5026586;28;20218;-57
2023/04/14 03:31:25;;;;;;;11.07;2.30;;;;;;;1.08;100.00;98029.16;5200789;23;20239;-53
2023/04/14 03:33:56;;;;;;;9.80;1.90;;;;;;;1.01;100.00;98018.47;4996037;28;20228;-57
2023/04/14 03:36:29;;;;;;;8.20;1.93;;;;;;;1.01;100.00;98022.78;5003873;28;20686;-57
2023/04/14 03:39:00;;;;;;;12.83;1.80;;;;;;;0.98;100.00;98025.56;5023602;28;20277;-57
2023/04/14 03:41:31;;;;;;;4.63;1.40;;;;;;;1.04;100.00;98027.72;5010658;28;20915;-58
2023/04/14 03:44:01;;;;;;;3.97;1.47;;;;;;;0.98;100.00;98021.25;5009482;28;20224;-58
2023/04/14 03:46:30;;;;;;;10.17;1.80;;;;;;;0.88;100.00;98025.38;5006323;28;20234;-57
2023/04/14 03:49:00;;;;;;;8.63;1.70;;;;;;;0.87;100.00;98028.88;5008312;28;20224;-57
2023/04/14 03:51:31;;;;;;;6.30;1.93;;;;;;;0.86;100.00;98029.81;5007762;28;20234;-57
2023/04/14 03:54:01;;;;;;;9.03;1.50;;;;;;;0.87;100.00;98021.97;5018664;28;20315;-57
2023/04/14 03:56:36;;;;;;;9.27;1.73;;;;;;;0.78;100.00;98035.44;5002020;28;20302;-57
2023/04/14 03:59:06;;;;;;;5.77;1.70;;;;;;;0.79;100.00;98033.72;5023939;28;20334;-56
2023/04/14 04:01:33;;;;;;;8.43;1.90;;;;;;;0.84;100.00;98029.88;5026752;28;20242;-57
2023/04/14 04:04:02;;;;;;;7.10;1.53;;;;;;;0.85;100.00;98026.41;5022885;28;20228;-57
2023/04/14 04:06:29;;;;;;;11.77;1.70;;;;;;;0.82;100.00;98028.38;5017147;28;20606;-58
2023/04/14 04:08:57;;;;;;;6.10;1.87;;;;;;;0.86;100.00;98029.81;5026154;28;20238;-55
2023/04/14 04:11:26;;;;;;;4.37;1.87;;;;;;;0.84;100.00;98031.66;5021773;28;20228;-56
2023/04/14 04:13:56;;;;;;;8.80;1.70;;;;;;;0.85;100.00;98030.72;5025442;28;20362;-56
2023/04/14 04:16:26;;;;;;;8.80;1.50;;;;;;;0.82;100.00;98034.31;5011009;28;20232;-56
2023/04/14 04:18:54;;;;;;;8.57;1.80;;;;;;;0.81;100.00;98037.81;5025769;28;21109;-54
2023/04/14 04:21:30;;;;;;;8.43;1.53;;;;;;;0.87;100.00;98045.09;5006100;28;20582;-56
2023/04/14 04:24:00;;;;;;;9.07;1.30;;;;;;;0.91;100.00;98040.59;5009242;28;20239;-53
2023/04/14 04:26:27;;;;;;;7.17;1.73;;;;;;;0.88;100.00;98041.59;5007365;28;20630;-56
2023/04/14 04:28:56;;;;;;;2.87;1.13;;;;;;;0.86;100.00;98045.22;5009052;28;20246;-55
2023/04/14 04:31:25;;;;;;;6.00;1.20;;;;;;;0.94;100.00;98048.09;5015430;28;20717;-56
2023/04/14 04:33:51;;;;;;;5.77;1.53;;;;;;;0.92;100.00;98049.09;4994492;28;20698;-55
2023/04/14 04:36:20;;;;;;;5.13;1.67;;;;;;;0.96;100.00;98053.13;5005859;28;20266;-55
2023/04/14 04:38:48;;;;;;;9.03;1.40;;;;;;;0.91;100.00;98055.16;5009471;28;20319;-58
2023/04/14 04:41:22;;;;;;;4.87;1.60;;;;;;;0.87;100.00;98057.13;5006372;28;20242;-57
2023/04/14 04:43:50;;;;;;;8.37;1.33;;;;;;;0.92;100.00;98059.38;5008752;28;20242;-58
2023/04/14 04:46:36;;;;;;;6.80;1.30;;;;;;;0.90;100.00;98059.50;5005203;28;20262;-57
2023/04/14 04:49:03;;;;;;;7.63;1.50;;;;;;;0.90;100.00;98059.50;5006287;28;20238;-57
2023/04/14 04:51:30;;;;;;;8.90;1.70;;;;;;;0.98;100.00;98062.38;5006315;28;20235;-56
2023/04/14 04:53:56;;;;;;;4.93;1.57;;;;;;;0.95;100.00;98061.75;5008993;28;20230;-56
2023/04/14 04:56:23;;;;;;;6.47;1.40;;;;;;;1.03;100.00;98067.19;5024371;28;20291;-57
2023/04/14 04:58:50;;;;;;;8.90;1.80;;;;;;;1.00;100.00;98062.25;5026573;28;20233;-56
2023/04/14 05:01:18;;;;;;;9.30;2.80;;;;;;;1.03;100.00;98068.03;5023701;28;20235;-57
2023/04/14 05:03:46;;;;;;;9.87;4.33;;;;;;;1.11;100.00;98061.50;5026388;28;20242;-54
2023/04/14 05:06:13;;;;;;;8.03;1.87;;;;;;;1.21;100.00;98061.72;5024069;28;20227;-56
2023/04/14 05:08:39;;;;;;;8.10;2.27;;;;;;;1.34;100.00;98065.09;5026661;28;20231;-57
2023/04/14 05:11:06;;;;;;;4.07;1.43;;;;;;;1.35;100.00;98065.91;5023831;28;20236;-57
2023/04/14 05:13:32;;;;;;;5.37;1.30;;;;;;;1.31;100.00;98073.03;5026158;28;20289;-56
2023/04/14 05:16:03;;;;;;;7.63;1.73;;;;;;;1.29;100.00;98067.97;5025250;28;20239;-55
2023/04/14 05:18:30;;;;;;;6.80;2.00;;;;;;;1.30;100.00;98068.81;5009949;28;20314;-56
2023/04/14 05:21:02;;;;;;;7.70;1.57;;;;;;;1.29;100.00;98062.81;5026555;28;20236;-55
2023/04/14 05:23:28;;;;;;;8.60;2.10;;;;;;;1.40;100.00;98068.97;5023097;28;20231;-57
2023/04/14 05:25:56;;;;;;;8.03;1.40;;;;;;;1.42;100.00;98077.41;5026881;28;20236;-56
2023/04/14 05:28:23;;;;;;;15.47;5.30;;;;;;;1.45;100.00;98074.63;5023753;28;20229;-57
2023/04/14 05:30:50;;;;;;;8.07;3.30;;;;;;;1.47;100.00;98077.91;5026581;28;20239;-57
2023/04/14 05:33:16;;;;;;;6.20;1.80;;;;;;;1.53;100.00;98082.63;5023017;28;20289;-57
2023/04/14 05:35:44;;;;;;;5.43;1.43;;;;;;;1.50;100.00;98077.69;5026875;28;20232;-57
2023/04/14 05:38:12;;;;;;;8.53;1.53;;;;;;;1.53;100.00;98077.50;5022746;28;20337;-57
2023/04/14 05:40:39;;;;;;;11.17;2.13;;;;;;;1.56;100.00;98079.84;5025732;28;20224;-57
2023/04/14 05:43:05;;;;;;;8.97;1.60;;;;;;;1.64;100.00;98078.50;5023087;28;20342;-57
2023/04/14 05:45:32;;;;;;;10.73;1.83;;;;;;;1.56;100.00;98076.47;5025813;28;20638;-55
2023/04/14 05:47:59;;;;;;;12.00;3.73;;;;;;;1.57;100.00;98081.50;5025452;28;20236;-56
2023/04/14 05:50:25;;;;;;;11.63;4.17;;;;;;;1.59;100.00;98078.81;5023233;28;20249;-55
2023/04/14 05:52:52;;;;;;;19.13;9.87;;;;;;;1.63;100.00;98085.38;5025582;28;20803;-57
2023/04/14 05:55:20;;;;;;;13.20;5.13;;;;;;;1.66;100.00;98080.00;5022855;28;20286;-56
2023/04/14 05:57:46;;;;;;;7.93;3.33;;;;;;;1.66;100.00;98084.34;5025529;28;20220;-55
2023/04/14 06:00:13;;;;;;;6.43;1.77;;;;;;;1.69;100.00;98091.84;5022195;28;20281;-54
2023/04/14 06:02:41;;;;;;;8.40;1.80;;;;;;;1.72;100.00;98087.31;5024887;28;20848;-54
2023/04/14 06:05:08;;;;;;;8.80;1.63;;;;;;;1.76;100.00;98090.50;5021684;28;20233;-54
2023/04/14 06:07:35;;;;;;;7.60;1.60;;;;;;;1.88;100.00;98092.22;5025303;28;20231;-58
2023/04/14 06:10:02;;;;;;;7.33;1.63;;;;;;;1.99;100.00;98088.84;5020913;28;20307;-57
2023/04/14 06:12:30;;;;;;;4.37;1.43;;;;;;;2.06;100.00;98099.56;5025396;28;20236;-56
2023/04/14 06:14:56;;;;;;;6.30;1.37;;;;;;;2.08;100.00;98089.13;5024741;28;20273;-55
2023/04/14 06:17:23;;;;;;;5.00;1.40;;;;;;;2.24;100.00;98089.69;5021871;28;20281;-57
2023/04/14 06:19:49;;;;;;;5.13;1.57;;;;;;;2.27;100.00;98086.88;5024972;28;20715;-57
2023/04/14 06:22:18;;;;;;;6.47;2.30;;;;;;;2.31;100.00;98093.44;5021913;28;20797;-55
2023/04/14 06:24:45;;;;;;;11.40;6.03;;;;;;;2.39;100.00;98090.31;5018662;28;20247;-55
2023/04/14 06:27:11;;;;;;;7.57;2.90;;;;;;;2.42;100.00;98092.66;5019273;28;20229;-56
2023/04/14 06:29:39;;;;;;;3.00;1.50;;;;;;;2.49;100.00;98096.41;5025154;28;20237;-54
2023/04/14 06:32:06;;;;;;;6.43;1.83;;;;;;;2.59;100.00;98088.84;5022150;28;20730;-54
2023/04/14 06:34:32;;;;;;;7.13;1.80;;;;;;;2.68;100.00;98087.34;5024827;28;20951;-55
2023/04/14 06:37:00;;;;;;;5.07;1.70;;;;;;;2.78;100.00;98084.88;5023630;28;20235;-55
2023/04/14 06:39:27;;;;;;;7.17;1.80;;;;;;;2.95;100.00;98081.88;5005965;28;20224;-55
2023/04/14 06:41:53;;;;;;;9.40;2.23;;;;;;;3.13;100.00;98080.59;5023677;28;20232;-56
2023/04/14 06:44:20;;;;;;;8.30;2.10;;;;;;;3.19;100.00;98077.53;5021091;28;20237;-55
2023/04/14 06:46:48;;;;;;;6.17;1.80;;;;;;;3.30;100.00;98081.88;5024641;28;20234;-56
2023/04/14 06:49:15;;;;;;;7.50;2.07;;;;;;;3.44;100.00;98078.22;5021541;28;20650;-54
2023/04/14 06:51:42;;;;;;;10.30;2.30;;;;;;;3.62;100.00;98073.41;5024639;28;20228;-54
2023/04/14 06:54:09;;;;;;;7.20;1.87;;;;;;;3.79;100.00;98072.06;5021872;28;20740;-56
2023/04/14 06:56:35;;;;;;;9.70;2.20;;;;;;;3.95;100.00;98071.66;5019883;28;20592;-57
2023/04/14 06:59:02;;;;;;;6.67;1.63;;;;;;;4.12;100.00;98065.16;5019193;28;20626;-54
2023/04/14 07:01:28;;;;;;;10.57;2.00;;;;;;;4.30;100.00;98062.84;5024700;28;20566;-57
2023/04/14 07:03:56;;;;;;;6.23;2.00;;;;;;;4.46;100.00;98067.56;5006656;28;20250;-57
2023/04/14 07:06:23;;;;;;;9.37;1.73;;;;;;;4.64;100.00;98064.41;5021670;28;20234;-57
2023/04/14 07:08:50;;;;;;;10.17;2.30;;;;;;;4.81;100.00;98060.44;5024129;28;20230;-57
2023/04/14 07:11:16;;;;;;;9.67;3.20;;;;;;;4.92;100.00;98052.59;5023197;28;20234;-58
2023/04/14 07:13:43;;;;;;;7.00;2.60;;;;;;;5.09;100.00;98058.94;5024323;28;20233;-56
2023/04/14 07:16:10;;;;;;;7.33;2.43;;;;;;;5.14;100.00;98055.94;5021579;28;20220;-57
2023/04/14 07:18:36;;;;;;;7.57;2.97;;;;;;;5.28;100.00;98057.38;5024318;28;20323;-57
2023/04/14 07:21:04;;;;;;;15.50;3.10;;;;;;;5.53;98.06;98060.44;5021393;28;20235;-56
2023/04/14 07:23:32;;;;;;;11.73;4.60;;;;;;;5.76;97.76;98056.66;5024203;28;20265;-54
2023/04/14 07:25:59;;;;;;;11.60;3.53;;;;;;;5.97;95.14;98054.91;5024284;28;20263;-56
2023/04/14 07:28:28;;;;;;;6.93;1.97;;;;;;;6.09;96.48;98047.88;5021690;28;20602;-56
2023/04/14 07:30:55;;;;;;;17.37;5.23;;;;;;;6.24;95.64;98050.84;5023832;28;20228;-56
2023/04/14 07:33:22;;;;;;;8.07;3.07;;;;;;;6.33;94.24;98045.69;5010139;28;20229;-57
2023/04/14 07:35:49;;;;;;;11.53;3.57;;;;;;;6.52;93.63;98051.78;5018522;28;20564;-56
2023/04/14 07:38:17;;;;;;;12.37;3.13;;;;;;;6.63;91.61;98040.44;5020472;28;20234;-56
2023/04/14 07:40:44;;;;;;;7.10;2.80;;;;;;;6.76;89.42;98032.34;5023157;28;20242;-55
2023/04/14 07:43:11;;;;;;;7.93;2.53;;;;;;;6.92;88.35;98042.09;5020946;28;20236;-55
2023/04/14 07:45:38;;;;;;;9.23;2.43;;;;;;;7.01;87.34;98037.84;5024456;28;20232;-58
2023/04/14 07:48:05;;;;;;;10.80;2.60;;;;;;;7.01;87.13;98030.88;5021319;28;20223;-57
2023/04/14 07:50:32;;;;;;;10.40;2.43;;;;;;;7.15;85.78;98033.97;5024503;28;20227;-55
2023/04/14 07:52:58;;;;;;;10.27;2.70;;;;;;;7.19;85.64;98025.75;5012797;28;20283;-57
2023/04/14 07:55:26;;;;;;;9.53;2.30;;;;;;;7.32;86.51;98027.22;5021514;28;20242;-54
2023/04/14 07:57:53;;;;;;;9.03;2.40;;;;;;;7.35;84.95;98025.13;5023934;28;20691;-56
2023/04/14 08:00:21;;;;;;;10.57;2.23;;;;;;;7.41;85.87;98033.31;5019911;28;20647;-58
2023/04/14 08:02:48;;;;;;;11.53;2.40;;;;;;;7.49;85.14;98023.81;5023854;28;20245;-57
2023/04/14 08:05:15;;;;;;;6.90;2.10;;;;;;;7.59;83.90;98025.53;5020709;28;20238;-56
2023/04/14 08:07:41;;;;;;;7.33;2.10;;;;;;;7.69;83.25;98023.69;5024152;28;20311;-59
2023/04/14 08:10:08;;;;;;;8.10;2.47;;;;;;;7.74;82.19;98034.47;5021332;28;20232;-58
2023/04/14 08:12:36;;;;;;;9.07;2.23;;;;;;;7.77;80.70;98028.16;5023816;28;20231;-55
2023/04/14 08:15:03;;;;;;;6.37;2.33;;;;;;;7.84;79.90;98029.22;5020223;28;20272;-58
2023/04/14 08:17:30;;;;;;;11.33;2.87;;;;;;;7.84;80.46;98031.81;5022696;28;20229;-57
2023/04/14 08:19:56;;;;;;;7.97;2.57;;;;;;;7.85;81.03;98030.00;5023613;28;20289;-57
2023/04/14 08:22:24;;;;;;;8.60;2.30;;;;;;;7.93;80.98;98033.53;5019998;28;20294;-55
2023/04/14 08:24:51;;;;;;;5.13;2.20;;;;;;;8.02;81.60;98031.78;5024150;28;20282;-56
2023/04/14 08:27:17;;;;;;;8.37;2.17;;;;;;;8.10;79.66;98039.66;5024131;28;20569;-56
2023/04/14 08:29:45;;;;;;;5.97;2.40;;;;;;;8.06;78.37;98030.53;5026676;28;20628;-56
2023/04/14 08:32:12;;;;;;;13.57;2.60;;;;;;;8.05;79.32;98022.88;5024481;28;20290;-58
2023/04/14 08:34:38;;;;;;;6.67;2.37;;;;;;;8.13;78.97;98028.97;5027018;28;20237;-54
2023/04/14 08:37:05;;;;;;;10.73;2.20;;;;;;;8.24;77.40;98027.09;5024466;28;20285;-57
2023/04/14 08:39:31;;;;;;;9.27;2.33;;;;;;;8.27;77.95;98026.81;5026907;28;20449;-55
2023/04/14 08:41:58;;;;;;;8.10;2.23;;;;;;;8.28;74.93;98034.44;5027134;28;20280;-57
2023/04/14 08:44:24;;;;;;;5.07;1.83;;;;;;;8.33;76.27;98025.38;5024291;28;20568;-56
2023/04/14 08:46:54;;;;;;;6.63;2.27;;;;;;;8.48;76.27;98031.66;5027217;28;20236;-57
2023/04/14 08:49:32;;;;;;;5.93;1.90;;;;;;;8.61;76.17;98039.09;5023552;28;20621;-57
2023/04/14 08:52:02;;;;;;;11.97;2.03;;;;;;;8.69;72.18;98033.94;5026711;28;20240;-56
2023/04/14 08:54:29;;;;;;;7.67;2.40;;;;;;;8.71;70.38;98034.59;5023811;28;20629;-55
2023/04/14 08:56:57;;;;;;;7.90;2.27;;;;;;;8.78;71.71;98026.19;5026391;28;20232;-56
2023/04/14 08:59:25;;;;;;;10.23;2.30;;;;;;;8.84;71.56;98034.19;5023730;28;20327;-56
2023/04/14 09:01:55;;;;;;;10.37;2.00;;;;;;;8.84;73.00;98030.78;5026738;28;20240;-57
2023/04/14 09:04:22;;;;;;;6.93;2.33;;;;;;;8.85;71.18;98022.00;5023763;28;20238;-57
2023/04/14 09:06:49;;;;;;;5.00;1.97;;;;;;;8.95;69.83;98021.91;5026724;28;20240;-57
2023/04/14 09:09:16;;;;;;;9.13;2.20;;;;;;;8.94;70.15;98021.06;5022348;28;20242;-54
2023/04/14 09:11:43;;;;;;;6.97;2.27;;;;;;;9.06;67.16;98026.00;5026479;28;20239;-56
2023/04/14 09:14:11;;;;;;;7.17;2.17;;;;;;;9.01;69.38;98016.88;5023391;28;20558;-56
2023/04/14 09:16:37;;;;;;;7.33;2.20;;;;;;;9.05;68.90;98012.16;5026709;28;20236;-57
2023/04/14 09:19:06;;;;;;;8.30;2.50;;;;;;;8.99;70.00;98003.19;5005793;28;20233;-57
2023/04/14 09:21:33;;;;;;;9.23;3.07;;;;;;;9.09;68.91;98010.88;5026555;28;20239;-57
2023/04/14 09:24:00;;;;;;;5.47;2.33;;;;;;;9.25;68.35;98006.69;5024884;28;20616;-56
2023/04/14 09:26:27;;;;;;;11.83;3.00;;;;;;;9.15;69.00;98007.63;5020991;28;20237;-57
2023/04/14 09:28:54;;;;;;;9.50;2.60;;;;;;;9.26;66.05;98009.16;5025872;28;20237;-57
2023/04/14 09:31:20;;;;;;;7.97;2.70;;;;;;;9.31;64.06;98003.47;5023294;28;20288;-58
2023/04/14 09:33:49;;;;;;;11.77;2.73;;;;;;;9.35;64.17;98001.38;5025388;28;20233;-57
2023/04/14 09:36:22;;;;;;;8.57;3.30;;;;;;;9.49;64.61;98007.75;5022129;28;20214;-57
2023/04/14 09:38:50;;;;;;;12.73;3.23;;;;;;;9.49;65.20;98008.59;5026077;28;20706;-57
2023/04/14 09:41:18;;;;;;;8.77;2.90;;;;;;;9.51;66.22;98005.81;5022624;28;20723;-58
2023/04/14 09:43:45;;;;;;;7.53;3.03;;;;;;;9.65;67.50;98004.34;5024693;28;20240;-57
2023/04/14 09:46:14;;;;;;;12.17;3.47;;;;;;;9.70;66.50;98004.69;5017127;22;20225;-61
2023/04/14 09:48:52;;;;;;;9.10;3.63;;;;;;;9.72;64.45;98000.97;4988253;28;20238;-60
2023/04/14 09:51:27;;;;;;;5.80;2.90;;;;;;;9.80;64.58;98001.94;4998003;28;20936;-61
2023/04/14 09:53:54;;;;;;;11.93;3.80;;;;;;;9.93;65.36;98007.50;5010224;28;20230;-61
2023/04/14 09:56:26;;;;;;;15.30;4.27;;;;;;;10.00;64.20;98003.28;5014020;28;20255;-61
2023/04/14 09:58:58;;;;;;;6.60;3.60;;;;;;;9.98;63.34;98007.00;5013983;28;20565;-61
2023/04/14 10:01:28;;;;;;;9.27;3.37;;;;;;;10.12;60.71;98003.75;4996463;28;20238;-61
2023/04/14 10:03:55;;;;;;;11.07;4.10;;;;;;;10.08;60.20;98004.22;5014656;28;20226;-61
2023/04/14 10:06:25;;;;;;;5.80;2.23;;;;;;;10.02;56.77;97997.88;5002945;28;20231;-61
2023/04/14 10:08:54;;;;;;;6.43;2.83;;;;;;;10.30;58.69;98000.16;5014756;28;20244;-61
2023/04/14 10:11:23;;;;;;;11.57;3.17;;;;;;;10.37;59.99;97998.53;5012591;28;20280;-61
2023/04/14 10:13:53;;;;;;;11.43;2.93;;;;;;;10.45;60.47;98002.94;5018455;28;20312;-61
2023/04/14 10:16:19;;;;;;;8.43;2.97;;;;;;;10.43;59.33;98000.50;5013489;28;20248;-61
2023/04/14 10:18:46;;;;;;;8.07;2.50;;;;;;;10.53;60.51;97994.31;5013593;28;20352;-61
2023/04/14 10:21:14;;;;;;;6.07;2.60;;;;;;;10.54;59.96;97993.31;5011517;28;20236;-61
2023/04/14 10:23:43;;;;;;;8.17;2.20;;;;;;;10.51;58.31;97996.25;4997261;28;20229;-61
2023/04/14 10:26:11;;;;;;;7.63;2.40;;;;;;;10.68;57.36;97987.38;4991486;28;20626;-62
2023/04/14 10:28:42;;;;;;;8.73;2.23;;;;;;;10.76;56.75;97978.75;5001477;28;20232;-60
2023/04/14 10:31:14;;;;;;;10.20;2.20;;;;;;;10.72;56.37;97978.25;4995273;28;20233;-60
2023/04/14 10:33:41;;;;;;;8.33;1.67;;;;;;;10.84;56.83;97977.88;5014009;28;20228;-61
2023/04/14 10:36:09;;;;;;;8.00;1.50;;;;;;;10.82;58.21;97977.25;4998455;28;20231;-60
2023/04/14 10:38:41;;;;;;;6.53;1.87;;;;;;;10.84;56.29;97976.09;4995222;28;20250;-61
2023/04/14 10:41:12;;;;;;;4.47;1.70;;;;;;;11.17;56.60;97982.97;4993317;28;20333;-62
2023/04/14 10:43:39;;;;;;;6.97;1.93;;;;;;;10.96;54.90;97973.94;4995708;28;20234;-62
2023/04/14 10:46:07;;;;;;;5.50;1.97;;;;;;;11.13;56.59;97974.66;4993368;28;20238;-62
2023/04/14 10:48:34;;;;;;;7.80;1.50;;;;;;;11.33;54.29;97969.00;4996231;28;20712;-62
2023/04/14 10:51:03;;;;;;;6.83;1.60;;;;;;;11.40;54.72;97964.72;4990046;28;20257;-62
2023/04/14 10:53:35;;;;;;;8.20;1.93;;;;;;;11.44;54.73;97971.25;4994442;28;20231;-62
2023/04/14 10:56:03;;;;;;;13.97;5.30;;;;;;;11.69;53.88;97968.47;4989732;28;20219;-62
2023/04/14 10:58:34;;;;;;;6.23;1.83;;;;;;;11.52;51.61;97957.31;4993767;28;20318;-62
2023/04/14 11:01:20;;;;;;;3.93;1.17;;;;;;;11.84;52.23;97957.25;4991921;28;20243;-62
2023/04/14 11:03:47;;;;;;;5.07;1.30;;;;;;;12.00;48.99;97956.34;4993932;28;20781;-62
2023/04/14 11:06:13;;;;;;;6.93;1.50;;;;;;;11.91;52.84;97953.75;5000255;28;20646;-62
2023/04/14 11:08:49;;;;;;;7.93;1.50;;;;;;;11.89;50.46;97952.31;5015501;28;20223;-62
2023/04/14 11:11:16;;;;;;;9.07;1.80;;;;;;;11.99;51.18;97952.06;5009411;28;20713;-62
2023/04/14 11:13:44;;;;;;;7.77;1.30;;;;;;;12.14;47.86;97942.47;5007115;28;20238;-59
2023/04/14 11:16:13;;;;;;;5.30;1.30;;;;;;;12.28;48.46;97940.06;5004459;28;20228;-62
2023/04/14 11:18:41;;;;;;;7.30;1.43;;;;;;;12.32;51.99;97930.88;5001652;28;20633;-62
2023/04/14 11:21:11;;;;;;;3.50;1.23;;;;;;;12.55;48.61;97939.47;5009405;28;20250;-65
2023/04/14 11:23:38;;;;;;;4.47;1.27;;;;;;;12.37;48.36;97931.16;5014106;28;20824;-64
2023/04/14 11:26:05;;;;;;;6.77;1.33;;;;;;;12.57;47.04;97928.00;5010034;28;20289;-64
2023/04/14 11:28:33;;;;;;;7.70;1.20;;;;;;;12.50;44.72;97925.28;5008401;28;20251;-64
2023/04/14 11:31:02;;;;;;;6.10;1.50;;;;;;;12.38;47.53;97925.72;5015239;28;20240;-63
2023/04/14 11:33:30;;;;;;;4.00;1.17;;;;;;;12.42;44.64;97927.97;5010035;28;20747;-63
2023/04/14 11:35:57;;;;;;;1.87;0.73;;;;;;;12.48;41.89;97933.31;5013099;28;20245;-63
2023/04/14 11:38:24;;;;;;;4.90;1.77;;;;;;;12.21;45.06;97919.84;5010831;28;20623;-63
2023/04/14 11:40:52;;;;;;;3.23;0.97;;;;;;;12.34;44.88;97921.03;5006584;28;20646;-63
2023/04/14 11:43:19;;;;;;;5.27;1.30;;;;;;;12.30;41.23;97909.31;4990302;28;20225;-63